sensor_id;sensor_type;location;lat;lon;timestamp;P1;durP1;ratioP1;P2;durP2;ratioP2
69985;SDS011;57328;52.054;5.294;2022-09-13T00:00:38;7.97;;;4.20;;
69985;SDS011;57328;52.054;5.294;2022-09-13T00:03:07;8.27;;;4.80;;
69985;SDS011;57328;52.054;5.294;2022-09-13T00:05:35;9.50;;;5.40;;
69985;SDS011;57328;52.054;5.294;2022-09-13T00:08:03;8.10;;;4.82;;
69985;SDS011;57328;52.054;5.294;2022-09-13T00:10:33;8.27;;;4.88;;
69985;SDS011;57328;52.054;5.294;2022-09-13T00:13:01;7.38;;;4.03;;
69985;SDS011;57328;52.054;5.294;2022-09-13T00:15:28;9.80;;;5.40;;
69985;SDS011;57328;52.054;5.294;2022-09-13T00:17:55;8.73;;;5.10;;
69985;SDS011;57328;52.054;5.294;2022-09-13T00:20:24;9.25;;;5.25;;
69985;SDS011;57328;52.054;5.294;2022-09-13T00:22:52;10.48;;;4.93;;
69985;SDS011;57328;52.054;5.294;2022-09-13T00:25:19;7.30;;;4.55;;
69985;SDS011;57328;52.054;5.294;2022-09-13T00:27:46;8.25;;;4.80;;
69985;SDS011;57328;52.054;5.294;2022-09-13T00:30:13;10.05;;;4.97;;
69985;SDS011;57328;52.054;5.294;2022-09-13T00:32:41;6.47;;;3.50;;
69985;SDS011;57328;52.054;5.294;2022-09-13T00:35:10;6.65;;;3.78;;
69985;SDS011;57328;52.054;5.294;2022-09-13T00:37:37;10.35;;;5.45;;
69985;SDS011;57328;52.054;5.294;2022-09-13T00:40:04;8.68;;;5.10;;
69985;SDS011;57328;52.054;5.294;2022-09-13T00:42:31;9.32;;;4.93;;
69985;SDS011;57328;52.054;5.294;2022-09-13T00:45:00;6.13;;;3.55;;
69985;SDS011;57328;52.054;5.294;2022-09-13T00:48:03;7.70;;;4.25;;
69985;SDS011;57328;52.054;5.294;2022-09-13T00:50:26;9.13;;;4.32;;
69985;SDS011;57328;52.054;5.294;2022-09-13T00:55:25;9.20;;;4.50;;
69985;SDS011;57328;52.054;5.294;2022-09-13T00:57:54;6.88;;;3.75;;
69985;SDS011;57328;52.054;5.294;2022-09-13T01:00:23;9.05;;;4.72;;
69985;SDS011;57328;52.054;5.294;2022-09-13T01:02:52;7.78;;;4.30;;
69985;SDS011;57328;52.054;5.294;2022-09-13T01:05:21;8.00;;;5.00;;
69985;SDS011;57328;52.054;5.294;2022-09-13T01:07:49;8.13;;;4.53;;
69985;SDS011;57328;52.054;5.294;2022-09-13T01:10:17;6.55;;;3.75;;
69985;SDS011;57328;52.054;5.294;2022-09-13T01:12:49;8.00;;;3.65;;
69985;SDS011;57328;52.054;5.294;2022-09-13T01:17:45;8.73;;;4.95;;
69985;SDS011;57328;52.054;5.294;2022-09-13T01:20:15;8.00;;;4.65;;
69985;SDS011;57328;52.054;5.294;2022-09-13T01:25:19;8.00;;;3.83;;
69985;SDS011;57328;52.054;5.294;2022-09-13T01:27:58;7.93;;;3.75;;
69985;SDS011;57328;52.054;5.294;2022-09-13T01:30:35;7.55;;;4.43;;
69985;SDS011;57328;52.054;5.294;2022-09-13T01:36:00;9.18;;;4.82;;
69985;SDS011;57328;52.054;5.294;2022-09-13T01:46:04;7.43;;;4.57;;
69985;SDS011;57328;52.054;5.294;2022-09-13T01:51:11;8.98;;;4.82;;
69985;SDS011;57328;52.054;5.294;2022-09-13T01:56:22;4.68;;;2.95;;
69985;SDS011;57328;52.054;5.294;2022-09-13T01:58:57;9.05;;;4.55;;
69985;SDS011;57328;52.054;5.294;2022-09-13T02:01:27;7.28;;;3.95;;
69985;SDS011;57328;52.054;5.294;2022-09-13T02:03:58;7.30;;;4.43;;
69985;SDS011;57328;52.054;5.294;2022-09-13T02:07:02;6.07;;;3.10;;
69985;SDS011;57328;52.054;5.294;2022-09-13T02:09:22;9.00;;;4.20;;
69985;SDS011;57328;52.054;5.294;2022-09-13T02:11:52;9.85;;;5.30;;
69985;SDS011;57328;52.054;5.294;2022-09-13T02:14:21;9.05;;;5.43;;
69985;SDS011;57328;52.054;5.294;2022-09-13T02:16:51;13.05;;;7.68;;
69985;SDS011;57328;52.054;5.294;2022-09-13T02:19:36;11.57;;;6.55;;
69985;SDS011;57328;52.054;5.294;2022-09-13T02:22:05;11.60;;;6.88;;
69985;SDS011;57328;52.054;5.294;2022-09-13T02:24:34;9.82;;;5.80;;
69985;SDS011;57328;52.054;5.294;2022-09-13T02:27:04;13.38;;;7.82;;
69985;SDS011;57328;52.054;5.294;2022-09-13T02:29:33;12.73;;;7.47;;
69985;SDS011;57328;52.054;5.294;2022-09-13T02:32:08;9.90;;;5.72;;
69985;SDS011;57328;52.054;5.294;2022-09-13T02:34:41;13.93;;;7.05;;
69985;SDS011;57328;52.054;5.294;2022-09-13T02:37:09;8.88;;;4.95;;
69985;SDS011;57328;52.054;5.294;2022-09-13T02:39:43;15.02;;;6.50;;
69985;SDS011;57328;52.054;5.294;2022-09-13T02:45:15;13.00;;;6.85;;
69985;SDS011;57328;52.054;5.294;2022-09-13T02:47:58;12.88;;;6.13;;
69985;SDS011;57328;52.054;5.294;2022-09-13T02:56:05;11.60;;;6.90;;
69985;SDS011;57328;52.054;5.294;2022-09-13T03:01:07;10.55;;;5.68;;
69985;SDS011;57328;52.054;5.294;2022-09-13T03:03:36;11.05;;;5.57;;
69985;SDS011;57328;52.054;5.294;2022-09-13T03:06:03;9.43;;;4.85;;
69985;SDS011;57328;52.054;5.294;2022-09-13T03:08:30;9.15;;;5.47;;
69985;SDS011;57328;52.054;5.294;2022-09-13T03:21:06;8.45;;;4.35;;
69985;SDS011;57328;52.054;5.294;2022-09-13T03:23:41;8.65;;;4.30;;
69985;SDS011;57328;52.054;5.294;2022-09-13T03:26:24;11.90;;;5.32;;
69985;SDS011;57328;52.054;5.294;2022-09-13T03:29:08;12.18;;;5.70;;
69985;SDS011;57328;52.054;5.294;2022-09-13T03:31:44;8.00;;;4.40;;
69985;SDS011;57328;52.054;5.294;2022-09-13T03:36:54;10.02;;;5.47;;
69985;SDS011;57328;52.054;5.294;2022-09-13T03:39:30;9.88;;;5.22;;
69985;SDS011;57328;52.054;5.294;2022-09-13T03:42:01;7.30;;;4.40;;
69985;SDS011;57328;52.054;5.294;2022-09-13T03:44:30;10.07;;;4.85;;
69985;SDS011;57328;52.054;5.294;2022-09-13T03:47:00;9.07;;;5.28;;
69985;SDS011;57328;52.054;5.294;2022-09-13T03:49:27;8.20;;;5.30;;
69985;SDS011;57328;52.054;5.294;2022-09-13T03:51:55;10.73;;;4.65;;
69985;SDS011;57328;52.054;5.294;2022-09-13T03:54:23;12.30;;;5.10;;
69985;SDS011;57328;52.054;5.294;2022-09-13T03:59:41;6.78;;;4.05;;
69985;SDS011;57328;52.054;5.294;2022-09-13T04:02:09;8.07;;;4.68;;
69985;SDS011;57328;52.054;5.294;2022-09-13T04:04:40;11.23;;;5.63;;
69985;SDS011;57328;52.054;5.294;2022-09-13T04:07:08;10.27;;;5.70;;
69985;SDS011;57328;52.054;5.294;2022-09-13T04:09:35;5.97;;;3.78;;
69985;SDS011;57328;52.054;5.294;2022-09-13T04:12:05;9.80;;;5.65;;
69985;SDS011;57328;52.054;5.294;2022-09-13T04:14:32;11.68;;;7.00;;
69985;SDS011;57328;52.054;5.294;2022-09-13T04:16:59;12.93;;;6.88;;
69985;SDS011;57328;52.054;5.294;2022-09-13T04:19:26;12.70;;;6.80;;
69985;SDS011;57328;52.054;5.294;2022-09-13T04:21:53;11.93;;;6.82;;
69985;SDS011;57328;52.054;5.294;2022-09-13T04:24:29;11.05;;;5.32;;
69985;SDS011;57328;52.054;5.294;2022-09-13T04:26:56;11.63;;;6.10;;
69985;SDS011;57328;52.054;5.294;2022-09-13T04:29:24;11.77;;;6.72;;
69985;SDS011;57328;52.054;5.294;2022-09-13T04:31:54;9.50;;;5.75;;
69985;SDS011;57328;52.054;5.294;2022-09-13T04:34:21;11.18;;;6.55;;
69985;SDS011;57328;52.054;5.294;2022-09-13T04:36:51;12.52;;;7.43;;
69985;SDS011;57328;52.054;5.294;2022-09-13T04:39:18;13.65;;;7.20;;
69985;SDS011;57328;52.054;5.294;2022-09-13T04:41:46;12.40;;;6.72;;
69985;SDS011;57328;52.054;5.294;2022-09-13T04:44:14;12.45;;;6.70;;
69985;SDS011;57328;52.054;5.294;2022-09-13T04:46:42;12.50;;;7.20;;
69985;SDS011;57328;52.054;5.294;2022-09-13T04:49:09;12.95;;;6.82;;
69985;SDS011;57328;52.054;5.294;2022-09-13T04:51:36;13.15;;;7.53;;
69985;SDS011;57328;52.054;5.294;2022-09-13T04:54:04;15.90;;;7.95;;
69985;SDS011;57328;52.054;5.294;2022-09-13T04:56:40;13.65;;;7.65;;
69985;SDS011;57328;52.054;5.294;2022-09-13T04:59:07;12.23;;;7.15;;
69985;SDS011;57328;52.054;5.294;2022-09-13T05:01:36;11.27;;;6.57;;
69985;SDS011;57328;52.054;5.294;2022-09-13T05:04:05;11.07;;;6.20;;
69985;SDS011;57328;52.054;5.294;2022-09-13T05:06:32;12.35;;;6.88;;
69985;SDS011;57328;52.054;5.294;2022-09-13T05:08:59;11.93;;;6.97;;
69985;SDS011;57328;52.054;5.294;2022-09-13T05:11:27;12.23;;;7.10;;
69985;SDS011;57328;52.054;5.294;2022-09-13T05:13:56;13.10;;;7.15;;
69985;SDS011;57328;52.054;5.294;2022-09-13T05:16:25;13.30;;;7.80;;
69985;SDS011;57328;52.054;5.294;2022-09-13T05:18:52;12.20;;;7.78;;
69985;SDS011;57328;52.054;5.294;2022-09-13T05:21:20;12.45;;;5.43;;
69985;SDS011;57328;52.054;5.294;2022-09-13T05:23:47;10.55;;;5.40;;
69985;SDS011;57328;52.054;5.294;2022-09-13T05:26:17;11.18;;;5.15;;
69985;SDS011;57328;52.054;5.294;2022-09-13T05:28:44;13.27;;;7.15;;
69985;SDS011;57328;52.054;5.294;2022-09-13T05:31:22;11.18;;;6.03;;
69985;SDS011;57328;52.054;5.294;2022-09-13T05:34:15;12.13;;;6.78;;
69985;SDS011;57328;52.054;5.294;2022-09-13T05:36:41;15.63;;;7.22;;
69985;SDS011;57328;52.054;5.294;2022-09-13T05:39:12;12.10;;;7.10;;
69985;SDS011;57328;52.054;5.294;2022-09-13T05:41:59;13.38;;;8.00;;
69985;SDS011;57328;52.054;5.294;2022-09-13T05:44:27;15.95;;;8.68;;
69985;SDS011;57328;52.054;5.294;2022-09-13T05:46:54;12.18;;;7.30;;
69985;SDS011;57328;52.054;5.294;2022-09-13T05:49:21;11.50;;;6.60;;
69985;SDS011;57328;52.054;5.294;2022-09-13T05:51:52;14.75;;;7.88;;
69985;SDS011;57328;52.054;5.294;2022-09-13T05:54:19;13.00;;;7.60;;
69985;SDS011;57328;52.054;5.294;2022-09-13T05:56:46;13.13;;;8.00;;
69985;SDS011;57328;52.054;5.294;2022-09-13T05:59:13;14.30;;;9.07;;
69985;SDS011;57328;52.054;5.294;2022-09-13T06:01:40;14.30;;;8.52;;
69985;SDS011;57328;52.054;5.294;2022-09-13T06:04:08;16.83;;;8.27;;
69985;SDS011;57328;52.054;5.294;2022-09-13T06:06:37;14.88;;;7.97;;
69985;SDS011;57328;52.054;5.294;2022-09-13T06:09:04;13.40;;;7.00;;
69985;SDS011;57328;52.054;5.294;2022-09-13T06:11:33;14.40;;;8.25;;
69985;SDS011;57328;52.054;5.294;2022-09-13T06:14:00;15.18;;;8.55;;
69985;SDS011;57328;52.054;5.294;2022-09-13T06:16:27;15.15;;;7.93;;
69985;SDS011;57328;52.054;5.294;2022-09-13T06:18:56;13.70;;;7.97;;
69985;SDS011;57328;52.054;5.294;2022-09-13T06:21:23;12.45;;;7.55;;
69985;SDS011;57328;52.054;5.294;2022-09-13T06:23:54;15.10;;;9.32;;
69985;SDS011;57328;52.054;5.294;2022-09-13T06:26:22;15.25;;;8.57;;
69985;SDS011;57328;52.054;5.294;2022-09-13T06:28:51;16.70;;;9.50;;
69985;SDS011;57328;52.054;5.294;2022-09-13T06:31:19;17.88;;;10.35;;
69985;SDS011;57328;52.054;5.294;2022-09-13T06:36:14;18.15;;;9.98;;
69985;SDS011;57328;52.054;5.294;2022-09-13T06:38:46;22.13;;;9.80;;
69985;SDS011;57328;52.054;5.294;2022-09-13T06:41:17;14.32;;;9.02;;
69985;SDS011;57328;52.054;5.294;2022-09-13T06:43:45;17.98;;;9.55;;
69985;SDS011;57328;52.054;5.294;2022-09-13T06:46:15;16.45;;;9.13;;
69985;SDS011;57328;52.054;5.294;2022-09-13T06:48:49;21.27;;;10.90;;
69985;SDS011;57328;52.054;5.294;2022-09-13T06:51:20;15.75;;;9.32;;
69985;SDS011;57328;52.054;5.294;2022-09-13T06:53:48;19.00;;;11.25;;
69985;SDS011;57328;52.054;5.294;2022-09-13T06:56:18;26.75;;;15.07;;
69985;SDS011;57328;52.054;5.294;2022-09-13T06:58:47;24.73;;;12.80;;
69985;SDS011;57328;52.054;5.294;2022-09-13T07:01:23;25.25;;;15.27;;
69985;SDS011;57328;52.054;5.294;2022-09-13T07:03:56;26.42;;;15.27;;
69985;SDS011;57328;52.054;5.294;2022-09-13T07:06:25;24.05;;;15.63;;
69985;SDS011;57328;52.054;5.294;2022-09-13T07:08:52;23.65;;;15.48;;
69985;SDS011;57328;52.054;5.294;2022-09-13T07:11:21;26.73;;;15.73;;
69985;SDS011;57328;52.054;5.294;2022-09-13T07:13:53;25.77;;;15.43;;
69985;SDS011;57328;52.054;5.294;2022-09-13T07:16:22;25.38;;;15.43;;
69985;SDS011;57328;52.054;5.294;2022-09-13T07:18:53;25.95;;;15.50;;
69985;SDS011;57328;52.054;5.294;2022-09-13T07:21:24;27.33;;;16.17;;
69985;SDS011;57328;52.054;5.294;2022-09-13T07:23:52;29.98;;;18.10;;
69985;SDS011;57328;52.054;5.294;2022-09-13T07:26:20;28.33;;;16.35;;
69985;SDS011;57328;52.054;5.294;2022-09-13T07:28:49;29.90;;;16.88;;
69985;SDS011;57328;52.054;5.294;2022-09-13T07:33:58;26.02;;;15.18;;
69985;SDS011;57328;52.054;5.294;2022-09-13T07:36:26;29.60;;;15.35;;
69985;SDS011;57328;52.054;5.294;2022-09-13T07:39:09;22.75;;;14.05;;
69985;SDS011;57328;52.054;5.294;2022-09-13T07:41:41;24.83;;;14.35;;
69985;SDS011;57328;52.054;5.294;2022-09-13T07:44:14;21.90;;;13.45;;
69985;SDS011;57328;52.054;5.294;2022-09-13T07:46:41;23.13;;;13.90;;
69985;SDS011;57328;52.054;5.294;2022-09-13T07:49:15;21.63;;;13.88;;
69985;SDS011;57328;52.054;5.294;2022-09-13T07:51:45;19.48;;;12.18;;
69985;SDS011;57328;52.054;5.294;2022-09-13T07:54:13;22.02;;;12.15;;
69985;SDS011;57328;52.054;5.294;2022-09-13T07:56:43;20.98;;;13.00;;
69985;SDS011;57328;52.054;5.294;2022-09-13T07:59:12;19.40;;;12.05;;
69985;SDS011;57328;52.054;5.294;2022-09-13T08:01:44;18.20;;;9.50;;
69985;SDS011;57328;52.054;5.294;2022-09-13T08:04:13;17.38;;;9.57;;
69985;SDS011;57328;52.054;5.294;2022-09-13T08:06:43;16.73;;;9.18;;
69985;SDS011;57328;52.054;5.294;2022-09-13T08:09:13;14.60;;;7.97;;
69985;SDS011;57328;52.054;5.294;2022-09-13T08:11:42;16.20;;;8.55;;
69985;SDS011;57328;52.054;5.294;2022-09-13T08:14:28;14.65;;;7.80;;
69985;SDS011;57328;52.054;5.294;2022-09-13T08:16:59;12.77;;;6.75;;
69985;SDS011;57328;52.054;5.294;2022-09-13T08:19:31;11.15;;;6.18;;
69985;SDS011;57328;52.054;5.294;2022-09-13T08:21:58;10.48;;;6.00;;
69985;SDS011;57328;52.054;5.294;2022-09-13T08:24:33;11.82;;;5.93;;
69985;SDS011;57328;52.054;5.294;2022-09-13T08:27:35;10.70;;;5.60;;
69985;SDS011;57328;52.054;5.294;2022-09-13T08:30:28;10.00;;;5.22;;
69985;SDS011;57328;52.054;5.294;2022-09-13T08:33:05;8.27;;;5.13;;
69985;SDS011;57328;52.054;5.294;2022-09-13T08:35:33;10.15;;;4.88;;
69985;SDS011;57328;52.054;5.294;2022-09-13T08:38:00;8.27;;;4.47;;
69985;SDS011;57328;52.054;5.294;2022-09-13T08:40:29;7.72;;;4.40;;
69985;SDS011;57328;52.054;5.294;2022-09-13T08:45:34;7.72;;;4.20;;
69985;SDS011;57328;52.054;5.294;2022-09-13T08:48:22;8.57;;;3.83;;
69985;SDS011;57328;52.054;5.294;2022-09-13T08:51:34;6.60;;;3.85;;
69985;SDS011;57328;52.054;5.294;2022-09-13T08:54:03;8.45;;;3.42;;
69985;SDS011;57328;52.054;5.294;2022-09-13T08:56:37;7.63;;;3.25;;
69985;SDS011;57328;52.054;5.294;2022-09-13T09:02:05;6.13;;;2.58;;
69985;SDS011;57328;52.054;5.294;2022-09-13T09:04:38;5.80;;;2.05;;
69985;SDS011;57328;52.054;5.294;2022-09-13T09:07:15;5.75;;;2.20;;
69985;SDS011;57328;52.054;5.294;2022-09-13T09:10:06;5.18;;;2.10;;
69985;SDS011;57328;52.054;5.294;2022-09-13T09:12:44;2.83;;;1.80;;
69985;SDS011;57328;52.054;5.294;2022-09-13T09:15:21;2.35;;;1.60;;
69985;SDS011;57328;52.054;5.294;2022-09-13T09:17:54;3.63;;;1.63;;
69985;SDS011;57328;52.054;5.294;2022-09-13T09:20:26;2.33;;;1.55;;
69985;SDS011;57328;52.054;5.294;2022-09-13T09:26:04;3.45;;;1.40;;
69985;SDS011;57328;52.054;5.294;2022-09-13T09:34:14;2.42;;;1.40;;
69985;SDS011;57328;52.054;5.294;2022-09-13T09:39:24;3.22;;;1.30;;
69985;SDS011;57328;52.054;5.294;2022-09-13T09:42:15;3.75;;;1.20;;
69985;SDS011;57328;52.054;5.294;2022-09-13T09:44:48;2.28;;;0.90;;
69985;SDS011;57328;52.054;5.294;2022-09-13T09:49:54;2.92;;;1.23;;
69985;SDS011;57328;52.054;5.294;2022-09-13T09:55:14;2.72;;;1.20;;
69985;SDS011;57328;52.054;5.294;2022-09-13T09:57:56;1.65;;;0.90;;
69985;SDS011;57328;52.054;5.294;2022-09-13T10:00:25;1.83;;;0.90;;
69985;SDS011;57328;52.054;5.294;2022-09-13T10:03:01;1.45;;;1.00;;
69985;SDS011;57328;52.054;5.294;2022-09-13T10:05:30;4.55;;;1.15;;
69985;SDS011;57328;52.054;5.294;2022-09-13T10:07:59;3.75;;;0.90;;
69985;SDS011;57328;52.054;5.294;2022-09-13T10:10:30;1.67;;;0.80;;
69985;SDS011;57328;52.054;5.294;2022-09-13T10:13:01;2.35;;;0.88;;
69985;SDS011;57328;52.054;5.294;2022-09-13T10:15:29;4.43;;;1.13;;
69985;SDS011;57328;52.054;5.294;2022-09-13T10:20:27;1.27;;;1.02;;
69985;SDS011;57328;52.054;5.294;2022-09-13T10:23:08;3.00;;;0.80;;
69985;SDS011;57328;52.054;5.294;2022-09-13T10:25:39;2.17;;;1.00;;
69985;SDS011;57328;52.054;5.294;2022-09-13T10:28:14;2.53;;;1.05;;
69985;SDS011;57328;52.054;5.294;2022-09-13T10:33:39;2.50;;;1.10;;
69985;SDS011;57328;52.054;5.294;2022-09-13T10:36:14;0.95;;;0.90;;
69985;SDS011;57328;52.054;5.294;2022-09-13T10:39:04;5.97;;;2.20;;
69985;SDS011;57328;52.054;5.294;2022-09-13T10:41:32;4.10;;;1.20;;
69985;SDS011;57328;52.054;5.294;2022-09-13T10:44:01;2.90;;;1.17;;
69985;SDS011;57328;52.054;5.294;2022-09-13T10:46:37;2.45;;;0.95;;
69985;SDS011;57328;52.054;5.294;2022-09-13T10:49:33;2.15;;;1.20;;
69985;SDS011;57328;52.054;5.294;2022-09-13T10:51:54;1.77;;;1.10;;
69985;SDS011;57328;52.054;5.294;2022-09-13T10:54:23;2.95;;;1.10;;
69985;SDS011;57328;52.054;5.294;2022-09-13T10:56:51;2.75;;;1.20;;
69985;SDS011;57328;52.054;5.294;2022-09-13T11:07:12;4.20;;;1.75;;
69985;SDS011;57328;52.054;5.294;2022-09-13T11:09:54;3.28;;;1.85;;
69985;SDS011;57328;52.054;5.294;2022-09-13T11:12:30;4.80;;;1.60;;
69985;SDS011;57328;52.054;5.294;2022-09-13T11:15:09;3.65;;;1.60;;
69985;SDS011;57328;52.054;5.294;2022-09-13T11:20:19;3.13;;;1.60;;
69985;SDS011;57328;52.054;5.294;2022-09-13T11:25:28;3.25;;;1.50;;
69985;SDS011;57328;52.054;5.294;2022-09-13T11:28:03;2.60;;;1.73;;
69985;SDS011;57328;52.054;5.294;2022-09-13T11:30:34;3.78;;;1.80;;
69985;SDS011;57328;52.054;5.294;2022-09-13T11:41:20;4.13;;;1.33;;
69985;SDS011;57328;52.054;5.294;2022-09-13T11:44:05;3.95;;;1.45;;
69985;SDS011;57328;52.054;5.294;2022-09-13T11:52:02;1.83;;;1.33;;
69985;SDS011;57328;52.054;5.294;2022-09-13T11:54:50;2.50;;;1.30;;
69985;SDS011;57328;52.054;5.294;2022-09-13T11:57:26;2.92;;;1.20;;
69985;SDS011;57328;52.054;5.294;2022-09-13T11:59:59;5.28;;;1.10;;
69985;SDS011;57328;52.054;5.294;2022-09-13T12:05:03;4.00;;;1.10;;
69985;SDS011;57328;52.054;5.294;2022-09-13T12:10:32;2.08;;;0.98;;
69985;SDS011;57328;52.054;5.294;2022-09-13T12:13:04;4.00;;;1.27;;
69985;SDS011;57328;52.054;5.294;2022-09-13T12:15:36;2.58;;;1.15;;
69985;SDS011;57328;52.054;5.294;2022-09-13T12:18:08;3.08;;;1.15;;
69985;SDS011;57328;52.054;5.294;2022-09-13T12:20:59;2.75;;;1.42;;
69985;SDS011;57328;52.054;5.294;2022-09-13T12:31:32;3.10;;;1.20;;
69985;SDS011;57328;52.054;5.294;2022-09-13T12:33:59;4.65;;;1.30;;
69985;SDS011;57328;52.054;5.294;2022-09-13T12:52:30;3.67;;;1.10;;
69985;SDS011;57328;52.054;5.294;2022-09-13T13:00:23;4.25;;;1.15;;
69985;SDS011;57328;52.054;5.294;2022-09-13T13:02:54;2.72;;;1.08;;
69985;SDS011;57328;52.054;5.294;2022-09-13T13:05:30;3.83;;;1.15;;
69985;SDS011;57328;52.054;5.294;2022-09-13T13:08:03;2.83;;;1.00;;
69985;SDS011;57328;52.054;5.294;2022-09-13T13:10:31;3.97;;;1.30;;
69985;SDS011;57328;52.054;5.294;2022-09-13T13:13:19;4.72;;;1.30;;
69985;SDS011;57328;52.054;5.294;2022-09-13T13:23:33;3.83;;;0.98;;
69985;SDS011;57328;52.054;5.294;2022-09-13T13:26:06;1.83;;;1.00;;
69985;SDS011;57328;52.054;5.294;2022-09-13T13:31:32;41.22;;;4.72;;
69985;SDS011;57328;52.054;5.294;2022-09-13T13:36:30;3.83;;;1.30;;
69985;SDS011;57328;52.054;5.294;2022-09-13T13:38:59;23.92;;;3.78;;
69985;SDS011;57328;52.054;5.294;2022-09-13T13:43:59;4.40;;;1.30;;
69985;SDS011;57328;52.054;5.294;2022-09-13T13:46:30;4.53;;;1.10;;
69985;SDS011;57328;52.054;5.294;2022-09-13T13:52:01;2.90;;;1.30;;
69985;SDS011;57328;52.054;5.294;2022-09-13T14:02:34;1.75;;;0.90;;
69985;SDS011;57328;52.054;5.294;2022-09-13T14:05:25;4.63;;;1.00;;
69985;SDS011;57328;52.054;5.294;2022-09-13T14:18:49;5.47;;;1.10;;
69985;SDS011;57328;52.054;5.294;2022-09-13T14:21:25;5.13;;;1.23;;
69985;SDS011;57328;52.054;5.294;2022-09-13T14:26:43;3.28;;;0.90;;
69985;SDS011;57328;52.054;5.294;2022-09-13T14:29:11;3.78;;;1.02;;
69985;SDS011;57328;52.054;5.294;2022-09-13T14:31:44;3.50;;;1.00;;
69985;SDS011;57328;52.054;5.294;2022-09-13T14:34:23;2.30;;;0.80;;
69985;SDS011;57328;52.054;5.294;2022-09-13T14:36:54;3.63;;;0.90;;
69985;SDS011;57328;52.054;5.294;2022-09-13T14:39:22;3.13;;;0.80;;
69985;SDS011;57328;52.054;5.294;2022-09-13T14:41:56;3.42;;;0.85;;
69985;SDS011;57328;52.054;5.294;2022-09-13T14:44:27;3.50;;;0.85;;
69985;SDS011;57328;52.054;5.294;2022-09-13T14:49:25;3.70;;;1.00;;
69985;SDS011;57328;52.054;5.294;2022-09-13T14:51:54;3.17;;;1.00;;
69985;SDS011;57328;52.054;5.294;2022-09-13T14:56:53;1.55;;;0.70;;
69985;SDS011;57328;52.054;5.294;2022-09-13T14:59:32;5.68;;;1.20;;
69985;SDS011;57328;52.054;5.294;2022-09-13T15:02:06;3.58;;;1.00;;
69985;SDS011;57328;52.054;5.294;2022-09-13T15:04:42;3.92;;;0.80;;
69985;SDS011;57328;52.054;5.294;2022-09-13T15:07:19;2.97;;;0.80;;
69985;SDS011;57328;52.054;5.294;2022-09-13T15:09:48;3.08;;;0.90;;
69985;SDS011;57328;52.054;5.294;2022-09-13T15:12:23;4.53;;;0.90;;
69985;SDS011;57328;52.054;5.294;2022-09-13T15:23:32;4.43;;;0.88;;
69985;SDS011;57328;52.054;5.294;2022-09-13T15:26:18;2.65;;;0.90;;
69985;SDS011;57328;52.054;5.294;2022-09-13T15:28:50;4.90;;;0.80;;
69985;SDS011;57328;52.054;5.294;2022-09-13T15:31:22;7.72;;;1.08;;
69985;SDS011;57328;52.054;5.294;2022-09-13T15:36:36;2.72;;;0.60;;
69985;SDS011;57328;52.054;5.294;2022-09-13T15:41:35;4.28;;;1.05;;
69985;SDS011;57328;52.054;5.294;2022-09-13T15:44:04;4.60;;;0.73;;
69985;SDS011;57328;52.054;5.294;2022-09-13T15:46:31;7.22;;;1.58;;
69985;SDS011;57328;52.054;5.294;2022-09-13T15:49:01;7.32;;;1.02;;
69985;SDS011;57328;52.054;5.294;2022-09-13T15:51:28;5.85;;;1.00;;
69985;SDS011;57328;52.054;5.294;2022-09-13T15:54:04;3.60;;;0.82;;
69985;SDS011;57328;52.054;5.294;2022-09-13T15:56:33;3.72;;;1.33;;
69985;SDS011;57328;52.054;5.294;2022-09-13T15:59:05;3.85;;;0.95;;
69985;SDS011;57328;52.054;5.294;2022-09-13T16:01:33;1.70;;;0.75;;
69985;SDS011;57328;52.054;5.294;2022-09-13T16:04:02;5.93;;;0.93;;
69985;SDS011;57328;52.054;5.294;2022-09-13T16:06:31;2.05;;;0.90;;
69985;SDS011;57328;52.054;5.294;2022-09-13T16:08:58;5.32;;;0.90;;
69985;SDS011;57328;52.054;5.294;2022-09-13T16:11:26;3.80;;;1.13;;
69985;SDS011;57328;52.054;5.294;2022-09-13T16:13:53;3.33;;;0.70;;
69985;SDS011;57328;52.054;5.294;2022-09-13T16:16:22;4.38;;;0.70;;
69985;SDS011;57328;52.054;5.294;2022-09-13T16:18:49;5.38;;;0.85;;
69985;SDS011;57328;52.054;5.294;2022-09-13T16:21:16;7.68;;;1.20;;
69985;SDS011;57328;52.054;5.294;2022-09-13T16:23:43;4.57;;;1.02;;
69985;SDS011;57328;52.054;5.294;2022-09-13T16:26:10;4.72;;;0.90;;
69985;SDS011;57328;52.054;5.294;2022-09-13T16:28:38;5.13;;;1.40;;
69985;SDS011;57328;52.054;5.294;2022-09-13T16:31:05;4.90;;;0.80;;
69985;SDS011;57328;52.054;5.294;2022-09-13T16:33:32;3.95;;;1.05;;
69985;SDS011;57328;52.054;5.294;2022-09-13T16:36:00;2.95;;;0.80;;
69985;SDS011;57328;52.054;5.294;2022-09-13T16:38:27;4.13;;;0.85;;
69985;SDS011;57328;52.054;5.294;2022-09-13T16:40:54;3.28;;;0.85;;
69985;SDS011;57328;52.054;5.294;2022-09-13T16:43:22;6.82;;;0.90;;
69985;SDS011;57328;52.054;5.294;2022-09-13T16:45:49;6.05;;;0.90;;
69985;SDS011;57328;52.054;5.294;2022-09-13T16:48:16;4.32;;;1.08;;
69985;SDS011;57328;52.054;5.294;2022-09-13T16:50:45;5.18;;;0.95;;
69985;SDS011;57328;52.054;5.294;2022-09-13T16:53:12;5.35;;;1.02;;
69985;SDS011;57328;52.054;5.294;2022-09-13T16:55:39;5.53;;;0.82;;
69985;SDS011;57328;52.054;5.294;2022-09-13T16:58:06;2.35;;;0.98;;
69985;SDS011;57328;52.054;5.294;2022-09-13T17:00:33;3.70;;;0.80;;
69985;SDS011;57328;52.054;5.294;2022-09-13T17:03:01;6.35;;;0.95;;
69985;SDS011;57328;52.054;5.294;2022-09-13T17:05:30;2.42;;;0.90;;
69985;SDS011;57328;52.054;5.294;2022-09-13T17:07:57;2.30;;;0.73;;
69985;SDS011;57328;52.054;5.294;2022-09-13T17:10:24;2.35;;;0.82;;
69985;SDS011;57328;52.054;5.294;2022-09-13T17:12:52;7.38;;;0.98;;
69985;SDS011;57328;52.054;5.294;2022-09-13T17:15:19;6.00;;;1.48;;
69985;SDS011;57328;52.054;5.294;2022-09-13T17:17:46;4.13;;;0.90;;
69985;SDS011;57328;52.054;5.294;2022-09-13T17:20:13;6.55;;;1.02;;
69985;SDS011;57328;52.054;5.294;2022-09-13T17:22:40;4.07;;;1.33;;
69985;SDS011;57328;52.054;5.294;2022-09-13T17:25:08;3.33;;;0.85;;
69985;SDS011;57328;52.054;5.294;2022-09-13T17:27:35;4.22;;;0.80;;
69985;SDS011;57328;52.054;5.294;2022-09-13T17:30:03;3.60;;;0.80;;
69985;SDS011;57328;52.054;5.294;2022-09-13T17:32:31;5.40;;;0.95;;
69985;SDS011;57328;52.054;5.294;2022-09-13T17:34:59;4.22;;;0.80;;
69985;SDS011;57328;52.054;5.294;2022-09-13T17:37:26;3.00;;;0.60;;
69985;SDS011;57328;52.054;5.294;2022-09-13T17:39:53;7.72;;;0.98;;
69985;SDS011;57328;52.054;5.294;2022-09-13T17:42:22;4.72;;;0.80;;
69985;SDS011;57328;52.054;5.294;2022-09-13T17:44:51;3.65;;;1.00;;
69985;SDS011;57328;52.054;5.294;2022-09-13T17:47:18;5.35;;;1.00;;
69985;SDS011;57328;52.054;5.294;2022-09-13T17:49:45;4.00;;;1.00;;
69985;SDS011;57328;52.054;5.294;2022-09-13T17:52:13;6.03;;;1.20;;
69985;SDS011;57328;52.054;5.294;2022-09-13T17:54:40;3.28;;;0.80;;
69985;SDS011;57328;52.054;5.294;2022-09-13T17:57:07;1.17;;;0.50;;
69985;SDS011;57328;52.054;5.294;2022-09-13T17:59:38;2.78;;;0.82;;
69985;SDS011;57328;52.054;5.294;2022-09-13T18:02:06;1.33;;;0.68;;
69985;SDS011;57328;52.054;5.294;2022-09-13T18:04:33;5.85;;;1.20;;
69985;SDS011;57328;52.054;5.294;2022-09-13T18:07:01;5.70;;;1.10;;
69985;SDS011;57328;52.054;5.294;2022-09-13T18:09:29;5.45;;;1.10;;
69985;SDS011;57328;52.054;5.294;2022-09-13T18:15:00;2.67;;;0.73;;
69985;SDS011;57328;52.054;5.294;2022-09-13T18:17:41;2.80;;;1.10;;
69985;SDS011;57328;52.054;5.294;2022-09-13T18:20:08;3.38;;;1.10;;
69985;SDS011;57328;52.054;5.294;2022-09-13T18:22:36;5.75;;;1.20;;
69985;SDS011;57328;52.054;5.294;2022-09-13T18:25:04;6.15;;;1.30;;
69985;SDS011;57328;52.054;5.294;2022-09-13T18:27:31;7.13;;;1.27;;
69985;SDS011;57328;52.054;5.294;2022-09-13T18:29:59;4.30;;;1.10;;
69985;SDS011;57328;52.054;5.294;2022-09-13T18:32:28;7.10;;;1.10;;